createdAt,value
2022-09-28T00:03:32.073Z,99179.09
2022-09-28T00:08:35.992Z,99187.19
2022-09-28T00:13:38.866Z,99185.97
2022-09-28T00:18:43.602Z,99184.53
2022-09-28T00:24:09.659Z,99188.56
2022-09-28T00:29:21.118Z,99182.09
2022-09-28T00:34:25.363Z,99178.19
2022-09-28T00:39:28.436Z,99168.78
2022-09-28T00:44:43.871Z,99160.72
2022-09-28T00:49:52.045Z,99171.47
2022-09-28T00:54:57.149Z,99162.31
2022-09-28T01:00:01.590Z,99161.50
2022-09-28T01:05:08.277Z,99159.63
2022-09-28T01:10:11.563Z,99150.13
2022-09-28T01:15:15.591Z,99153.59
2022-09-28T01:20:37.484Z,99144.41
2022-09-28T01:25:46.781Z,99151.66
2022-09-28T01:31:03.287Z,99153.25
2022-09-28T01:36:10.870Z,99150.19
2022-09-28T01:41:17.444Z,99146.56
2022-09-28T01:46:25.580Z,99141.09
2022-09-28T01:51:33.425Z,99139.56
2022-09-28T01:56:41.302Z,99123.06
2022-09-28T02:01:52.880Z,99128.38
2022-09-28T02:07:01.175Z,99132.72
2022-09-28T02:12:11.912Z,99128.94
2022-09-28T02:17:17.179Z,99120.09
2022-09-28T02:22:26.115Z,99120.16
2022-09-28T02:27:42.548Z,99114.03
2022-09-28T02:32:51.060Z,99114.03
2022-09-28T02:37:55.994Z,99120.09
2022-09-28T02:43:07.740Z,99120.00
2022-09-28T02:48:41.308Z,99110.75
2022-09-28T02:54:01.820Z,99114.53
2022-09-28T02:59:14.588Z,99125.94
2022-09-28T03:04:27.734Z,99114.53
2022-09-28T03:09:35.911Z,99117.41
2022-09-28T03:14:39.057Z,99110.28
2022-09-28T03:19:44.148Z,99107.69
2022-09-28T03:24:46.949Z,99106.56
2022-09-28T03:29:49.966Z,99103.59
2022-09-28T03:34:54.526Z,99104.06
2022-09-28T03:39:57.320Z,99098.19
2022-09-28T03:45:00.132Z,99096.72
2022-09-28T03:50:04.590Z,99107.47
2022-09-28T03:55:07.975Z,99101.13
2022-09-28T04:00:11.916Z,99098.75
2022-09-28T04:05:18.991Z,99098.66
2022-09-28T04:10:22.067Z,99099.84
2022-09-28T04:15:25.415Z,99095.09
2022-09-28T04:20:29.956Z,99098.50
2022-09-28T04:25:39.627Z,99098.44
2022-09-28T04:30:42.799Z,99102.28
2022-09-28T04:35:47.095Z,99102.59
2022-09-28T04:40:50.512Z,99103.50
2022-09-28T04:45:53.413Z,99111.47
2022-09-28T04:51:01.677Z,99108.34
2022-09-28T04:56:07.011Z,99103.03
2022-09-28T05:01:13.581Z,99104.69
2022-09-28T05:06:32.989Z,99100.19
2022-09-28T05:11:40.650Z,99096.00
2022-09-28T05:16:48.614Z,99101.75
2022-09-28T05:22:06.113Z,99107.06
2022-09-28T05:27:15.830Z,99110.00
2022-09-28T05:32:21.885Z,99103.34
2022-09-28T05:37:49.387Z,99104.09
2022-09-28T05:42:52.530Z,99096.06
2022-09-28T05:47:55.400Z,99099.25
2022-09-28T05:53:01.681Z,99102.13
2022-09-28T05:58:19.346Z,99093.13
2022-09-28T06:03:22.540Z,99094.72
2022-09-28T06:08:26.839Z,99089.19
2022-09-28T06:13:38.614Z,99106.41
2022-09-28T06:18:42.347Z,99102.78
2022-09-28T06:23:49.651Z,99118.88
2022-09-28T06:28:54.215Z,99115.41
2022-09-28T06:33:57.334Z,99118.53
2022-09-28T06:39:01.570Z,99121.59
2022-09-28T06:44:05.004Z,99132.69
2022-09-28T06:49:30.293Z,99130.13
2022-09-28T06:54:53.120Z,99134.09
2022-09-28T07:00:06.085Z,99142.28
2022-09-28T07:05:13.527Z,99141.47
2022-09-28T07:10:36.027Z,99144.13
2022-09-28T07:15:57.370Z,99152.31
2022-09-28T07:21:02.805Z,99146.66
2022-09-28T07:26:09.381Z,99159.97
2022-09-28T07:31:26.269Z,99159.09
2022-09-28T07:36:39.101Z,99160.81
2022-09-28T07:41:44.256Z,99162.34
2022-09-28T07:46:47.372Z,99160.34
2022-09-28T07:51:57.553Z,99168.91
2022-09-28T07:57:15.239Z,99175.25
2022-09-28T08:02:44.694Z,99177.28
2022-09-28T08:07:53.041Z,99182.56
2022-09-28T08:13:02.032Z,99188.47
2022-09-28T08:18:26.280Z,99187.28
2022-09-28T08:23:29.153Z,99196.25
2022-09-28T08:28:34.288Z,99203.34
2022-09-28T08:33:43.120Z,99208.97
2022-09-28T08:39:09.345Z,99208.97
2022-09-28T08:50:11.107Z,99219.09
2022-09-28T08:55:37.841Z,99227.28
2022-09-28T09:00:46.818Z,99222.69
2022-09-28T09:06:04.442Z,99221.22
2022-09-28T09:11:43.803Z,99218.44
2022-09-28T09:17:00.381Z,99228.09
2022-09-28T09:22:40.672Z,99229.63
2022-09-28T09:27:59.715Z,99229.13
2022-09-28T09:33:35.794Z,99224.47
2022-09-28T09:39:08.105Z,99227.75
2022-09-28T09:44:48.802Z,99240.91
2022-09-28T09:50:25.253Z,99224.81
2022-09-28T09:55:35.215Z,99242.81
2022-09-28T10:01:06.830Z,99239.34
2022-09-28T10:06:40.212Z,99235.28
2022-09-28T10:11:47.710Z,99244.91
2022-09-28T10:16:53.418Z,99235.09
2022-09-28T10:22:24.212Z,99240.97
2022-09-28T10:27:32.681Z,99242.94
2022-09-28T10:32:41.323Z,99238.19
2022-09-28T10:37:52.253Z,99241.88
2022-09-28T10:43:22.876Z,99240.00
2022-09-28T10:48:29.463Z,99245.75
2022-09-28T10:53:36.963Z,99233.38
2022-09-28T10:58:42.116Z,99238.63
2022-09-28T11:03:53.304Z,99239.25
2022-09-28T11:08:59.564Z,99237.72
2022-09-28T11:14:04.686Z,99242.28
2022-09-28T11:19:29.432Z,99242.53
2022-09-28T11:24:33.996Z,99252.88
2022-09-28T11:29:42.745Z,99245.91
2022-09-28T11:35:17.461Z,99243.75
2022-09-28T11:40:31.480Z,99250.06
2022-09-28T11:45:47.694Z,99250.38
2022-09-28T11:50:53.297Z,99257.75
2022-09-28T11:56:08.665Z,99253.59
2022-09-28T12:01:23.115Z,99249.16
2022-09-28T12:06:53.329Z,99252.00
2022-09-28T12:12:05.198Z,99266.00
2022-09-28T12:17:26.577Z,99265.44
2022-09-28T12:22:36.375Z,99262.22
2022-09-28T12:27:47.256Z,99266.28
2022-09-28T12:32:56.351Z,99264.47
2022-09-28T12:38:18.222Z,99260.59
2022-09-28T12:43:57.593Z,99269.47
2022-09-28T12:54:51.664Z,99274.78
2022-09-28T13:00:03.717Z,99264.47
2022-09-28T13:05:25.273Z,99278.06
2022-09-28T13:10:34.712Z,99272.75
2022-09-28T13:15:44.980Z,99276.25
2022-09-28T13:21:04.836Z,99285.63
2022-09-28T13:26:17.847Z,99276.63
2022-09-28T13:31:29.151Z,99276.81
2022-09-28T13:36:39.293Z,99281.84
2022-09-28T13:41:50.574Z,99280.22
2022-09-28T13:47:20.525Z,99274.31
2022-09-28T13:52:35.677Z,99282.09
2022-09-28T13:57:46.316Z,99289.94
2022-09-28T14:02:58.778Z,99291.84
2022-09-28T14:08:30.997Z,99295.53
2022-09-28T14:14:01.339Z,99278.97
2022-09-28T14:19:09.148Z,99287.38
2022-09-28T14:24:30.254Z,99290.88
2022-09-28T14:29:36.486Z,99294.69
2022-09-28T14:34:44.031Z,99294.47
2022-09-28T14:40:05.776Z,99293.75
2022-09-28T14:45:35.820Z,99286.56
2022-09-28T14:50:40.391Z,99296.19
2022-09-28T14:55:51.138Z,99296.31
2022-09-28T15:01:01.597Z,99305.63
2022-09-28T15:06:06.016Z,99305.81
2022-09-28T15:11:16.683Z,99307.81
2022-09-28T15:16:24.809Z,99315.53
2022-09-28T15:21:36.354Z,99312.69
2022-09-28T15:26:39.066Z,99310.72
2022-09-28T15:31:41.927Z,99315.03
2022-09-28T15:36:47.109Z,99324.75
2022-09-28T15:41:51.637Z,99330.66
2022-09-28T15:47:09.451Z,99326.25
2022-09-28T15:52:36.430Z,99325.63
2022-09-28T15:57:41.089Z,99330.28
2022-09-28T16:03:00.291Z,99336.16
2022-09-28T16:08:06.010Z,99344.91
2022-09-28T16:13:21.080Z,99343.06
2022-09-28T16:18:25.474Z,99347.81
2022-09-28T16:23:33.244Z,99349.03
2022-09-28T16:28:55.879Z,99351.16
2022-09-28T16:34:02.242Z,99354.75
2022-09-28T16:39:06.341Z,99355.13
2022-09-28T16:44:17.150Z,99358.00
2022-09-28T16:49:20.035Z,99363.53
2022-09-28T16:54:43.115Z,99362.88
2022-09-28T16:59:45.875Z,99370.44
2022-09-28T17:04:48.664Z,99372.69
2022-09-28T17:09:52.818Z,99372.69
2022-09-28T17:14:56.442Z,99368.09
2022-09-28T17:19:59.387Z,99369.25
2022-09-28T17:25:03.572Z,99384.44
2022-09-28T17:30:07.735Z,99380.59
2022-09-28T17:35:24.275Z,99390.41
2022-09-28T17:40:31.470Z,99385.00
2022-09-28T17:45:39.461Z,99388.00
2022-09-28T17:50:46.669Z,99399.09
2022-09-28T17:55:51.530Z,99401.25
2022-09-28T18:00:54.456Z,99403.69
2022-09-28T18:06:03.333Z,99408.19
2022-09-28T18:11:07.691Z,99407.31
2022-09-28T18:16:11.003Z,99405.38
2022-09-28T18:21:17.898Z,99414.34
2022-09-28T18:26:22.244Z,99418.38
2022-09-28T18:31:25.494Z,99425.44
2022-09-28T18:36:33.234Z,99423.44
2022-09-28T18:41:37.743Z,99425.59
2022-09-28T18:46:42.947Z,99433.91
2022-09-28T18:51:45.937Z,99440.91
2022-09-28T18:56:51.257Z,99448.41
2022-09-28T19:01:54.367Z,99448.09
2022-09-28T19:06:57.218Z,99453.78
2022-09-28T19:12:01.953Z,99457.78
2022-09-28T19:17:04.899Z,99456.66
2022-09-28T19:22:07.646Z,99463.97
2022-09-28T19:27:12.169Z,99465.50
2022-09-28T19:32:15.354Z,99474.22
2022-09-28T19:37:18.173Z,99475.88
2022-09-28T19:42:22.553Z,99476.69
2022-09-28T19:47:25.618Z,99487.38
2022-09-28T19:52:28.515Z,99483.03
2022-09-28T19:57:34.211Z,99495.75
2022-09-28T20:02:37.142Z,99488.19
2022-09-28T20:07:40.053Z,99495.81
2022-09-28T20:12:44.437Z,99493.06
2022-09-28T20:17:47.542Z,99500.72
2022-09-28T20:22:50.454Z,99504.06
2022-09-28T20:27:55.139Z,99500.78
2022-09-28T20:32:58.102Z,99506.75
2022-09-28T20:38:07.882Z,99514.50
2022-09-28T20:43:12.348Z,99514.22
2022-09-28T20:48:15.292Z,99513.59
2022-09-28T20:53:18.121Z,99511.91
2022-09-28T20:58:22.264Z,99513.44
2022-09-28T21:03:25.356Z,99513.84
2022-09-28T21:08:28.189Z,99510.13
2022-09-28T21:13:32.332Z,99522.03
2022-09-28T21:18:35.149Z,99527.00
2022-09-28T21:23:38.100Z,99530.19
2022-09-28T21:28:44.620Z,99528.22
2022-09-28T21:33:47.573Z,99535.06
2022-09-28T21:38:50.423Z,99541.00
2022-09-28T21:43:54.798Z,99535.94
2022-09-28T21:48:57.573Z,99536.66
2022-09-28T21:54:00.379Z,99541.34
2022-09-28T21:59:04.595Z,99543.50
2022-09-28T22:04:07.353Z,99543.06
2022-09-28T22:09:10.166Z,99539.59
2022-09-28T22:14:14.607Z,99542.53
2022-09-28T22:19:17.640Z,99545.34
2022-09-28T22:24:20.604Z,99544.44
2022-09-28T22:29:24.918Z,99547.97
2022-09-28T22:34:30.638Z,99552.03
2022-09-28T22:39:37.472Z,99549.00
2022-09-28T22:44:42.442Z,99559.91
2022-09-28T22:49:45.173Z,99559.13
2022-09-28T22:54:51.136Z,99557.47
2022-09-28T22:59:55.258Z,99561.88
2022-09-28T23:04:57.973Z,99572.72
2022-09-28T23:10:00.699Z,99572.16
2022-09-28T23:15:05.728Z,99567.50
2022-09-28T23:20:09.569Z,99573.63
2022-09-28T23:25:12.280Z,99569.09
2022-09-28T23:30:18.180Z,99563.66
2022-09-28T23:35:21.163Z,99564.16
2022-09-28T23:40:24.034Z,99561.91
2022-09-28T23:45:28.202Z,99569.72
2022-09-28T23:50:31.190Z,99566.16
2022-09-28T23:55:35.042Z,99563.38
